Time;durP1;ratioP1;P1;durP2;ratioP2;P2;SDS_P1;SDS_P2;PMS_P1;PMS_P2;Temp;Humidity;BMP_temperature;BMP_pressure;BME280_temperature;BME280_humidity;BME280_pressure;Samples;Min_cycle;Max_cycle;Signal;HPM_P1;HPM_P2
2022/04/20 00:01:06;;;;;;;;;19.00;16.75;;;26.29;97239.21;;;;116701;1198;24826;-52
2022/04/20 00:03:34;;;;;;;;;18.00;16.00;;;26.27;97238.88;;;;116753;1197;25524;-51
2022/04/20 00:06:02;;;;;;;;;24.33;17.33;;;26.24;97240.17;;;;116836;1197;24898;-50
2022/04/20 00:08:30;;;;;;;;;12.67;11.67;;;26.24;97242.27;;;;116773;1197;25187;-54
2022/04/20 00:10:59;;;;;;;;;13.75;12.00;;;26.22;97241.64;;;;116786;1197;25194;-51
2022/04/20 00:13:27;;;;;;;;;14.33;11.33;;;26.19;97240.40;;;;116685;1196;24972;-54
2022/04/20 00:15:55;;;;;;;;;17.67;15.67;;;26.19;97239.10;;;;116523;1197;25235;-52
2022/04/20 00:18:23;;;;;;;;;21.25;14.00;;;26.18;97235.34;;;;116562;1196;25358;-48
2022/04/20 00:20:51;;;;;;;;;16.67;14.67;;;26.17;97238.73;;;;116540;1197;25633;-52
2022/04/20 00:23:18;;;;;;;;;15.25;14.00;;;26.13;97234.52;;;;116678;1197;24801;-49
2022/04/20 00:25:46;;;;;;;;;14.00;13.00;;;26.13;97236.21;;;;116533;1197;24832;-56
2022/04/20 00:28:14;;;;;;;;;19.67;16.33;;;26.14;97234.36;;;;116604;1197;25446;-50
2022/04/20 00:30:42;;;;;;;;;17.00;14.50;;;26.13;97231.58;;;;116757;1197;25050;-54
2022/04/20 00:33:10;;;;;;;;;16.67;15.33;;;26.10;97231.52;;;;116780;1196;25155;-53
2022/04/20 00:35:39;;;;;;;;;18.25;15.75;;;26.08;97229.06;;;;116621;1196;25742;-55
2022/04/20 00:38:07;;;;;;;;;14.25;12.50;;;26.08;97232.42;;;;116615;1197;25703;-52
2022/04/20 00:40:35;;;;;;;;;18.00;13.33;;;26.09;97234.95;;;;116633;1196;25094;-52
2022/04/20 00:43:03;;;;;;;;;14.75;13.00;;;26.06;97233.95;;;;116793;1198;25246;-51
2022/04/20 00:45:32;;;;;;;;;14.33;13.00;;;26.04;97233.50;;;;116723;1197;24827;-49
2022/04/20 00:48:00;;;;;;;;;15.75;14.00;;;26.01;97233.11;;;;116789;1197;25404;-52
2022/04/20 00:50:28;;;;;;;;;17.25;15.25;;;26.00;97235.79;;;;116874;1196;25452;-50
2022/04/20 00:52:56;;;;;;;;;16.00;11.00;;;26.01;97234.71;;;;116755;1197;26522;-55
2022/04/20 00:55:29;;;;;;;;;16.00;15.50;;;26.01;97234.17;;;;116795;1196;25668;-52
2022/04/20 00:57:57;;;;;;;;;11.00;11.00;;;26.01;97236.41;;;;116779;1196;25584;-49
2022/04/20 01:00:28;;;;;;;;;12.00;10.67;;;26.00;97235.80;;;;116825;1197;25120;-53
2022/04/20 01:02:56;;;;;;;;;12.00;12.00;;;26.03;97236.10;;;;116799;1196;25709;-52
2022/04/20 01:05:24;;;;;;;;;12.00;12.00;;;26.04;97235.99;;;;116788;1197;25537;-47
2022/04/20 01:07:52;;;;;;;;;9.50;8.75;;;26.04;97235.39;;;;116785;1196;25412;-51
2022/04/20 01:10:20;;;;;;;;;11.33;11.33;;;26.04;97235.67;;;;116780;1196;25380;-54
2022/04/20 01:12:48;;;;;;;;;13.50;8.75;;;26.04;97235.68;;;;116846;1198;25155;-55
2022/04/20 01:15:17;;;;;;;;;12.00;10.75;;;26.08;97233.01;;;;116713;1197;25181;-53
2022/04/20 01:17:45;;;;;;;;;11.00;11.00;;;26.08;97235.99;;;;116758;1196;25456;-53
2022/04/20 01:20:14;;;;;;;;;13.50;11.00;;;26.10;97237.68;;;;116719;1196;25303;-49
2022/04/20 01:22:42;;;;;;;;;13.00;11.00;;;26.14;97237.36;;;;116604;1198;25076;-53
2022/04/20 01:25:11;;;;;;;;;11.00;8.67;;;26.15;97236.14;;;;116827;1196;25320;-52
2022/04/20 01:27:40;;;;;;;;;14.75;11.75;;;26.16;97238.05;;;;116794;1197;25042;-53
2022/04/20 01:30:09;;;;;;;;;11.00;10.00;;;26.15;97242.74;;;;116895;1197;25662;-47
2022/04/20 01:32:37;;;;;;;;;12.75;10.75;;;26.19;97244.14;;;;116823;1197;25698;-52
2022/04/20 01:35:05;;;;;;;;;9.00;8.50;;;26.20;97245.95;;;;116832;1197;25229;-52
2022/04/20 01:37:33;;;;;;;;;15.00;10.50;;;26.18;97249.98;;;;116793;1198;25246;-53
2022/04/20 01:40:01;;;;;;;;;9.00;9.00;;;26.16;97250.75;;;;116837;1197;25334;-52
2022/04/20 01:42:29;;;;;;;;;13.00;11.33;;;26.17;97247.09;;;;116768;1197;25368;-55
2022/04/20 01:44:56;;;;;;;;;12.33;5.33;;;26.17;97249.77;;;;116746;1198;25647;-53
2022/04/20 01:47:26;;;;;;;;;10.00;9.25;;;26.16;97250.39;;;;116687;1197;25559;-50
2022/04/20 01:49:54;;;;;;;;;12.00;10.33;;;26.19;97250.92;;;;116660;1197;24823;-55
2022/04/20 01:52:22;;;;;;;;;11.00;11.00;;;26.22;97252.18;;;;116556;1197;25058;-56
2022/04/20 01:54:50;;;;;;;;;11.00;9.67;;;26.19;97256.64;;;;116645;1195;25697;-53
2022/04/20 01:57:17;;;;;;;;;9.50;8.50;;;26.18;97256.59;;;;116581;1197;25436;-53
2022/04/20 01:59:46;;;;;;;;;11.00;8.25;;;26.14;97258.63;;;;116622;1197;25406;-54
2022/04/20 02:05:05;;;;;;;;;7.75;7.75;;;26.13;97256.48;;;;116815;1194;24939;-54
2022/04/20 02:07:33;;;;;;;;;7.00;6.33;;;26.11;97259.16;;;;116798;1197;25054;-53
2022/04/20 02:10:04;;;;;;;;;14.00;11.75;;;26.08;97254.58;;;;116805;1197;25102;-53
2022/04/20 02:12:32;;;;;;;;;10.25;9.00;;;26.02;97256.18;;;;116827;1196;25239;-49
2022/04/20 02:14:59;;;;;;;;;10.00;8.33;;;26.04;97252.98;;;;116741;1197;25719;-51
2022/04/20 02:17:28;;;;;;;;;12.67;8.00;;;26.01;97254.94;;;;116594;1198;25192;-55
2022/04/20 02:19:59;;;;;;;;;7.67;7.00;;;25.99;97255.73;;;;116767;1197;25111;-52
2022/04/20 02:22:27;;;;;;;;;9.00;6.67;;;25.96;97254.17;;;;116804;1197;25579;-49
2022/04/20 02:24:55;;;;;;;;;7.00;7.00;;;25.92;97254.38;;;;116783;1197;25246;-50
2022/04/20 02:27:23;;;;;;;;;9.33;6.00;;;25.90;97254.53;;;;116884;1196;24897;-48
2022/04/20 02:29:50;;;;;;;;;8.33;7.67;;;25.90;97257.60;;;;116711;1197;25684;-51
2022/04/20 02:32:18;;;;;;;;;10.25;8.25;;;25.91;97258.45;;;;116770;1197;25385;-52
2022/04/20 02:34:46;;;;;;;;;9.00;9.00;;;25.87;97258.83;;;;116931;1196;25701;-49
2022/04/20 02:37:16;;;;;;;;;9.00;8.33;;;25.93;97257.45;;;;116778;1196;24857;-52
2022/04/20 02:39:45;;;;;;;;;7.33;7.33;;;25.95;97255.77;;;;116809;1197;25305;-52
2022/04/20 02:42:12;;;;;;;;;7.75;6.50;;;25.88;97255.69;;;;116815;1195;24872;-47
2022/04/20 02:44:40;;;;;;;;;11.33;9.33;;;25.87;97256.84;;;;116846;1197;24848;-54
2022/04/20 02:47:08;;;;;;;;;12.00;10.50;;;25.84;97254.08;;;;116747;1198;26635;-50
2022/04/20 02:49:36;;;;;;;;;10.33;9.33;;;25.84;97257.35;;;;116775;1197;25232;-54
2022/04/20 02:52:05;;;;;;;;;9.67;8.00;;;25.81;97258.85;;;;116736;1196;25007;-53
2022/04/20 02:54:32;;;;;;;;;13.33;7.33;;;25.78;97258.83;;;;116825;1197;26013;-50
2022/04/20 02:57:00;;;;;;;;;7.25;7.25;;;25.82;97262.30;;;;116771;1197;24934;-52
2022/04/20 02:59:28;;;;;;;;;10.25;8.50;;;25.81;97261.87;;;;117005;1196;25262;-51
2022/04/20 03:01:56;;;;;;;;;8.25;7.00;;;25.89;97263.45;;;;116824;1196;25073;-52
2022/04/20 03:04:24;;;;;;;;;7.67;6.00;;;25.90;97265.02;;;;116612;1196;24856;-52
2022/04/20 03:06:52;;;;;;;;;8.33;8.33;;;25.90;97267.27;;;;116552;1197;25577;-50
2022/04/20 03:09:19;;;;;;;;;7.00;7.00;;;25.85;97268.27;;;;116601;1197;25721;-52
2022/04/20 03:11:47;;;;;;;;;6.67;6.00;;;25.88;97270.98;;;;116600;1197;25644;-52
2022/04/20 03:14:18;;;;;;;;;9.50;7.50;;;25.86;97270.77;;;;116685;1196;24866;-57
2022/04/20 03:16:46;;;;;;;;;7.75;7.75;;;25.89;97270.65;;;;116717;1197;25769;-54
2022/04/20 03:19:14;;;;;;;;;6.33;6.33;;;25.91;97272.70;;;;116596;1197;24975;-56
2022/04/20 03:21:42;;;;;;;;;11.00;9.00;;;25.94;97274.29;;;;116783;1196;24878;-52
2022/04/20 03:24:12;;;;;;;;;8.33;6.67;;;25.95;97277.77;;;;116779;1197;25673;-53
2022/04/20 03:26:40;;;;;;;;;12.00;7.00;;;25.99;97276.02;;;;116780;1197;26663;-51
2022/04/20 03:29:11;;;;;;;;;9.33;8.33;;;26.02;97274.22;;;;116771;1197;25694;-55
2022/04/20 03:31:39;;;;;;;;;9.00;7.00;;;26.02;97273.64;;;;116750;1197;25247;-52
2022/04/20 03:34:07;;;;;;;;;10.50;9.50;;;26.05;97276.30;;;;116821;1197;26097;-48
2022/04/20 03:36:36;;;;;;;;;13.25;10.50;;;26.11;97274.91;;;;116848;1197;24915;-53
2022/04/20 03:39:04;;;;;;;;;10.67;10.33;;;26.15;97273.07;;;;116776;1197;24676;-51
2022/04/20 03:41:37;;;;;;;;;11.50;8.50;;;26.18;97271.91;;;;116781;1196;25510;-52
2022/04/20 03:44:08;;;;;;;;;13.25;10.75;;;26.24;97272.78;;;;116789;1197;25712;-53
2022/04/20 03:46:39;;;;;;;;;12.00;8.25;;;26.28;97272.21;;;;116785;1197;25133;-50
2022/04/20 03:49:11;;;;;;;;;14.00;10.50;;;26.29;97271.86;;;;116809;1197;25594;-49
2022/04/20 03:51:40;;;;;;;;;17.50;10.25;;;26.32;97269.65;;;;116793;1198;25741;-52
2022/04/20 03:54:11;;;;;;;;;17.75;12.75;;;26.31;97269.10;;;;116806;1196;24956;-52
2022/04/20 03:59:32;;;;;;;;;13.00;12.00;;;26.56;97271.86;;;;117524;1197;25520;-47
2022/04/20 04:02:03;;;;;;;;;20.25;12.50;;;26.80;97271.20;;;;116777;1197;25643;-50
2022/04/20 04:04:32;;;;;;;;;14.75;12.00;;;26.85;97273.79;;;;117097;1196;25615;-49
2022/04/20 04:07:05;;;;;;;;;14.00;10.25;;;26.93;97273.33;;;;116956;1196;25456;-46
2022/04/20 04:09:35;;;;;;;;;9.33;7.67;;;27.00;97276.80;;;;117631;1197;25376;-48
2022/04/20 04:12:05;;;;;;;;;28.00;17.67;;;27.18;97278.89;;;;117166;1197;25844;-46
2022/04/20 04:14:42;;;;;;;;;17.50;14.75;;;27.17;97283.22;;;;116911;1197;24912;-48
2022/04/20 04:17:09;;;;;;;;;19.25;11.25;;;27.05;97283.63;;;;116847;1196;24749;-47
2022/04/20 04:19:37;;;;;;;;;26.00;20.00;;;26.95;97284.58;;;;116870;1196;25221;-47
2022/04/20 04:22:05;;;;;;;;;17.67;12.00;;;26.86;97286.91;;;;116851;1197;25709;-47
2022/04/20 04:24:36;;;;;;;;;24.00;19.67;;;26.75;97292.55;;;;116913;1197;24729;-48
2022/04/20 04:27:05;;;;;;;;;19.50;14.50;;;26.70;97295.02;;;;116913;1197;25684;-47
2022/04/20 04:29:33;;;;;;;;;24.33;16.33;;;26.66;97299.84;;;;116840;1197;25631;-47
2022/04/20 04:32:01;;;;;;;;;16.67;13.33;;;26.60;97301.80;;;;116920;1197;24754;-47
2022/04/20 04:34:29;;;;;;;;;22.50;16.00;;;26.54;97299.48;;;;116820;1196;25311;-47
2022/04/20 04:36:58;;;;;;;;;21.00;16.00;;;26.47;97299.86;;;;116862;1197;25667;-47
2022/04/20 04:39:28;;;;;;;;;15.50;14.00;;;26.40;97299.92;;;;116838;1196;24917;-47
2022/04/20 04:42:00;;;;;;;;;23.33;14.00;;;26.37;97299.66;;;;116782;1196;25747;-48
2022/04/20 04:44:29;;;;;;;;;21.67;14.33;;;26.34;97298.02;;;;116785;1197;25433;-47
2022/04/20 04:49:42;;;;;;;;;13.67;13.00;;;26.24;97296.59;;;;116769;1197;25461;-48
2022/04/20 04:52:13;;;;;;;;;18.33;14.67;;;26.18;97297.80;;;;116939;1196;25550;-47
2022/04/20 04:54:41;;;;;;;;;15.67;11.67;;;26.18;97295.45;;;;116794;1196;24992;-48
2022/04/20 04:57:10;;;;;;;;;16.75;12.75;;;26.13;97297.41;;;;116907;1196;24957;-47
2022/04/20 04:59:42;;;;;;;;;14.50;13.50;;;26.13;97302.33;;;;116853;1196;25879;-47
2022/04/20 05:02:10;;;;;;;;;16.00;11.33;;;26.12;97299.80;;;;116954;1196;25387;-47
2022/04/20 05:04:42;;;;;;;;;18.50;12.25;;;26.16;97301.89;;;;116972;1197;26245;-49
2022/04/20 05:07:10;;;;;;;;;16.25;13.25;;;26.17;97301.10;;;;116888;1197;24729;-48
2022/04/20 05:09:38;;;;;;;;;21.50;14.50;;;26.18;97304.52;;;;117022;1197;25474;-48
2022/04/20 05:12:06;;;;;;;;;17.00;13.67;;;26.17;97305.70;;;;116752;1196;25662;-48
2022/04/20 05:14:37;;;;;;;;;15.67;13.00;;;26.12;97306.88;;;;116840;1197;25343;-47
2022/04/20 05:17:05;;;;;;;;;13.50;13.50;;;26.09;97308.70;;;;116937;1197;25279;-47
2022/04/20 05:19:34;;;;;;;;;12.50;11.00;;;26.07;97311.56;;;;116809;1197;25222;-47
2022/04/20 05:22:02;;;;;;;;;15.25;11.25;;;26.04;97319.15;;;;116816;1197;24922;-48
2022/04/20 05:24:30;;;;;;;;;17.67;12.00;;;26.02;97318.02;;;;116839;1196;25603;-48
2022/04/20 05:26:58;;;;;;;;;14.00;12.33;;;25.99;97318.02;;;;116787;1197;25521;-48
2022/04/20 05:29:26;;;;;;;;;12.00;11.33;;;25.99;97322.09;;;;116902;1197;24750;-49
2022/04/20 05:31:55;;;;;;;;;13.00;11.50;;;25.98;97320.34;;;;116817;1197;24839;-47
2022/04/20 05:34:27;;;;;;;;;17.00;13.00;;;25.94;97320.00;;;;116734;1197;25084;-47
2022/04/20 05:42:28;;;;;;;;;12.00;10.33;;;25.83;97318.31;;;;116821;1196;24867;-49
2022/04/20 05:44:56;;;;;;;;;12.50;9.75;;;25.82;97320.02;;;;116574;1198;29516;-48
2022/04/20 05:47:24;;;;;;;;;13.75;12.75;;;25.80;97317.77;;;;116932;1196;25669;-47
2022/04/20 05:49:52;;;;;;;;;11.25;8.75;;;25.82;97317.88;;;;116843;1198;25164;-47
2022/04/20 05:52:20;;;;;;;;;10.75;8.75;;;25.77;97316.05;;;;116762;1196;25270;-47
2022/04/20 05:54:48;;;;;;;;;10.67;9.67;;;25.76;97314.46;;;;116762;1196;24853;-48
2022/04/20 05:57:18;;;;;;;;;8.75;8.75;;;25.72;97315.17;;;;116936;1198;26083;-49
2022/04/20 05:59:48;;;;;;;;;13.33;11.33;;;25.75;97314.89;;;;116784;1196;25088;-48
2022/04/20 06:02:16;;;;;;;;;14.00;12.00;;;25.72;97313.41;;;;116821;1196;25651;-48
2022/04/20 06:04:46;;;;;;;;;14.33;12.33;;;25.70;97310.86;;;;116929;1198;24820;-47
2022/04/20 06:07:18;;;;;;;;;13.75;12.00;;;25.71;97311.20;;;;116787;1196;25099;-46
2022/04/20 06:09:46;;;;;;;;;13.33;13.00;;;25.70;97312.45;;;;116844;1198;25165;-50
2022/04/20 06:12:21;;;;;;;;;13.00;12.00;;;25.74;97307.23;;;;116777;1197;25602;-52
2022/04/20 06:14:50;;;;;;;;;17.00;15.75;;;25.76;97307.59;;;;116807;1196;25666;-52
2022/04/20 06:17:18;;;;;;;;;12.50;11.75;;;25.76;97302.94;;;;116841;1197;25723;-53
2022/04/20 06:19:47;;;;;;;;;21.00;14.33;;;25.78;97302.23;;;;116799;1196;25252;-55
2022/04/20 06:22:15;;;;;;;;;14.00;14.00;;;25.77;97301.34;;;;116870;1196;25459;-54
2022/04/20 06:24:44;;;;;;;;;23.00;15.00;;;25.79;97301.98;;;;116780;1197;24835;-53
2022/04/20 06:27:12;;;;;;;;;14.00;14.00;;;25.79;97301.92;;;;116819;1197;25722;-49
2022/04/20 06:29:39;;;;;;;;;14.33;12.33;;;25.77;97304.02;;;;116876;1197;24755;-52
2022/04/20 06:32:09;;;;;;;;;18.00;18.00;;;25.81;97304.73;;;;116837;1197;26357;-53
2022/04/20 06:34:41;;;;;;;;;20.00;15.67;;;25.81;97303.83;;;;116809;1196;25077;-49
2022/04/20 06:37:13;;;;;;;;;21.50;16.50;;;25.83;97301.89;;;;116532;1198;25311;-49
2022/04/20 06:39:44;;;;;;;;;16.50;15.00;;;25.85;97296.09;;;;116890;1196;25205;-54
2022/04/20 06:42:12;;;;;;;;;22.50;19.00;;;25.89;97293.26;;;;116716;1198;24929;-52
2022/04/20 06:44:42;;;;;;;;;13.00;12.00;;;25.94;97291.33;;;;116812;1196;25437;-47
2022/04/20 06:47:13;;;;;;;;;14.33;13.33;;;25.90;97283.33;;;;116856;1197;26471;-46
2022/04/20 06:49:42;;;;;;;;;17.33;14.33;;;25.92;97283.64;;;;116851;1197;24927;-47
2022/04/20 07:00:46;;;;;;;;;16.00;16.00;;;26.04;97272.64;;;;116818;1196;25745;-50
2022/04/20 07:03:18;;;;;;;;;18.00;16.50;;;26.00;97271.11;;;;116863;1197;25117;-48
2022/04/20 07:05:51;;;;;;;;;13.75;12.75;;;26.00;97269.16;;;;116743;1197;25035;-50
2022/04/20 07:08:22;;;;;;;;;12.00;12.00;;;25.98;97265.20;;;;116886;1196;25258;-53
2022/04/20 07:10:50;;;;;;;;;20.50;16.00;;;25.99;97263.16;;;;116883;1197;25615;-46
2022/04/20 07:13:19;;;;;;;;;15.00;12.50;;;26.02;97263.30;;;;116887;1197;25055;-49
2022/04/20 07:15:47;;;;;;;;;15.67;11.00;;;25.99;97261.11;;;;116825;1197;25472;-47
2022/04/20 07:18:17;;;;;;;;;16.50;14.00;;;25.99;97255.86;;;;116995;1197;25466;-48
2022/04/20 07:20:52;;;;;;;;;14.33;12.67;;;26.04;97254.08;;;;116764;1195;26266;-54
2022/04/20 07:23:24;;;;;;;;;12.33;12.00;;;26.04;97250.95;;;;116940;1196;24779;-45
2022/04/20 07:25:57;;;;;;;;;14.25;13.00;;;26.00;97251.28;;;;116737;1197;25613;-48
2022/04/20 07:28:25;;;;;;;;;18.00;15.00;;;25.94;97256.09;;;;116916;1197;25380;-46
2022/04/20 07:30:53;;;;;;;;;26.67;15.33;;;25.95;97254.96;;;;116682;1196;24806;-48
2022/04/20 07:33:21;;;;;;;;;18.75;13.50;;;25.97;97250.79;;;;116824;1197;25731;-47
2022/04/20 07:35:49;;;;;;;;;14.50;13.00;;;26.00;97249.79;;;;116568;1198;24745;-47
2022/04/20 07:38:19;;;;;;;;;16.67;13.00;;;26.02;97246.86;;;;117018;1196;25506;-46
2022/04/20 07:40:54;;;;;;;;;15.00;14.00;;;26.13;97245.64;;;;116852;1198;25653;-50
2022/04/20 07:43:23;;;;;;;;;16.00;14.33;;;26.15;97242.66;;;;116865;1198;25257;-48
2022/04/20 07:45:51;;;;;;;;;13.75;11.75;;;26.20;97238.17;;;;116865;1197;25764;-49
2022/04/20 07:48:19;;;;;;;;;16.33;14.00;;;26.21;97234.92;;;;116850;1196;25734;-49
2022/04/20 07:50:49;;;;;;;;;16.00;13.67;;;26.26;97231.88;;;;116851;1197;25727;-49
2022/04/20 07:53:21;;;;;;;;;15.00;14.00;;;26.31;97230.95;;;;116794;1197;26362;-51
2022/04/20 07:55:51;;;;;;;;;23.50;15.50;;;26.34;97226.85;;;;116853;1197;25515;-52
2022/04/20 07:58:21;;;;;;;;;12.67;12.67;;;26.38;97221.38;;;;116883;1197;25055;-47
2022/04/20 08:00:51;;;;;;;;;19.67;15.33;;;26.43;97219.23;;;;116999;1198;24865;-50
2022/04/20 08:03:20;;;;;;;;;15.33;12.33;;;26.53;97217.52;;;;116830;1196;25654;-51
2022/04/20 08:05:53;;;;;;;;;15.33;14.00;;;26.54;97218.63;;;;116854;1196;24779;-46
2022/04/20 08:08:22;;;;;;;;;20.00;13.00;;;26.58;97215.34;;;;116912;1196;25264;-46
2022/04/20 08:10:50;;;;;;;;;15.50;11.25;;;26.63;97212.14;;;;116810;1197;26493;-46
2022/04/20 08:16:09;;;;;;;;;17.00;14.33;;;26.68;97200.77;;;;116870;1197;25645;-45
2022/04/20 08:18:37;;;;;;;;;21.75;14.25;;;26.67;97197.92;;;;116790;1197;25356;-46
2022/04/20 08:21:05;;;;;;;;;15.33;13.67;;;26.67;97201.22;;;;116927;1196;25178;-49
2022/04/20 08:23:32;;;;;;;;;13.00;11.00;;;26.71;97199.61;;;;116828;1197;24837;-47
2022/04/20 08:26:00;;;;;;;;;16.50;12.50;;;26.70;97201.52;;;;116721;1197;25557;-45
2022/04/20 08:28:30;;;;;;;;;10.50;10.50;;;26.68;97196.69;;;;116815;1197;26606;-49
2022/04/20 08:30:58;;;;;;;;;13.67;12.00;;;26.69;97193.17;;;;116834;1198;25303;-47
2022/04/20 08:33:26;;;;;;;;;17.50;11.00;;;26.70;97192.83;;;;116761;1197;25052;-50
2022/04/20 08:35:55;;;;;;;;;12.00;9.00;;;26.66;97192.70;;;;116873;1197;25235;-51
2022/04/20 08:38:25;;;;;;;;;16.33;14.00;;;26.69;97196.29;;;;116885;1196;25265;-53
2022/04/20 08:41:01;;;;;;;;;16.25;13.75;;;26.72;97197.91;;;;116802;1196;25076;-49
2022/04/20 08:43:29;;;;;;;;;16.00;14.00;;;26.75;97197.33;;;;116783;1197;25702;-51
2022/04/20 08:46:00;;;;;;;;;15.00;10.33;;;26.77;97197.20;;;;116692;1198;25643;-47
2022/04/20 08:48:32;;;;;;;;;16.67;11.67;;;26.78;97198.71;;;;116728;1196;26233;-48
2022/04/20 08:51:04;;;;;;;;;19.00;13.50;;;26.79;97200.13;;;;116670;1196;25318;-48
2022/04/20 08:53:32;;;;;;;;;15.00;12.00;;;26.80;97199.90;;;;116888;1197;24832;-46
2022/04/20 08:58:57;;;;;;;;;16.00;13.00;;;26.84;97195.57;;;;116852;1196;24941;-47
2022/04/20 09:01:29;;;;;;;;;14.75;10.50;;;26.85;97197.88;;;;116918;1197;25398;-45
2022/04/20 09:04:00;;;;;;;;;16.00;11.00;;;26.90;97200.34;;;;116868;1197;24810;-48
2022/04/20 09:06:31;;;;;;;;;12.75;10.75;;;26.91;97202.91;;;;116898;1197;25160;-47
2022/04/20 09:09:04;;;;;;;;;17.33;13.33;;;26.95;97202.27;;;;116901;1196;25644;-46
2022/04/20 09:11:34;;;;;;;;;20.67;16.33;;;26.97;97202.39;;;;116900;1197;24876;-47
2022/04/20 09:14:16;;;;;;;;;25.33;16.67;;;26.95;97199.98;;;;116807;1196;24783;-46
2022/04/20 09:16:46;;;;;;;;;15.75;10.75;;;26.96;97197.20;;;;116828;1197;26182;-48
2022/04/20 09:19:25;;;;;;;;;20.25;12.75;;;26.93;97195.40;;;;116894;1198;25788;-48
2022/04/20 09:21:56;;;;;;;;;18.25;14.25;;;27.00;97196.55;;;;116730;1196;25761;-46
2022/04/20 09:24:27;;;;;;;;;15.50;13.25;;;26.98;97195.11;;;;116838;1197;25620;-49
2022/04/20 09:26:56;;;;;;;;;15.33;11.33;;;26.98;97198.27;;;;116829;1197;25176;-46
2022/04/20 09:29:27;;;;;;;;;21.25;17.50;;;26.95;97197.00;;;;116858;1196;27195;-46
2022/04/20 09:31:56;;;;;;;;;21.33;13.33;;;26.95;97195.23;;;;116792;1197;25344;-46
2022/04/20 09:34:28;;;;;;;;;13.50;12.00;;;26.94;97197.79;;;;116762;1197;24774;-51
2022/04/20 09:36:57;;;;;;;;;17.00;14.33;;;26.92;97196.77;;;;116820;1197;25218;-50
2022/04/20 09:39:38;;;;;;;;;11.75;9.75;;;26.94;97199.30;;;;116730;1197;25093;-51
2022/04/20 09:42:08;;;;;;;;;17.00;14.00;;;27.01;97197.25;;;;116879;1196;27009;-49
2022/04/20 09:44:40;;;;;;;;;17.50;13.50;;;27.09;97200.63;;;;116697;1197;25024;-51
2022/04/20 09:50:04;;;;;;;;;17.00;13.00;;;27.14;97206.82;;;;116781;1196;24950;-55
2022/04/20 09:52:43;;;;;;;;;19.33;13.00;;;27.08;97208.03;;;;116914;1196;24972;-44
2022/04/20 09:55:18;;;;;;;;;12.00;9.67;;;27.06;97207.73;;;;116790;1197;25610;-44
2022/04/20 09:57:53;;;;;;;;;19.50;15.00;;;27.04;97208.73;;;;116843;1198;25292;-46
2022/04/20 10:00:24;;;;;;;;;18.67;15.67;;;27.05;97207.52;;;;116866;1198;25157;-45
2022/04/20 10:02:55;;;;;;;;;16.00;11.67;;;27.03;97211.14;;;;116822;1197;25008;-44
2022/04/20 10:05:24;;;;;;;;;16.33;14.00;;;27.04;97210.64;;;;116712;1197;25593;-44
2022/04/20 10:07:56;;;;;;;;;15.00;12.67;;;27.02;97208.84;;;;116648;1197;26463;-46
2022/04/20 10:10:29;;;;;;;;;16.00;13.75;;;27.05;97203.98;;;;116714;1197;25626;-43
2022/04/20 10:13:04;;;;;;;;;19.00;13.00;;;27.06;97205.25;;;;116623;1196;26203;-46
2022/04/20 10:18:28;;;;;;;;;16.67;12.00;;;27.11;97206.77;;;;116681;1198;25581;-46
2022/04/20 10:21:05;;;;;;;;;14.00;14.00;;;27.05;97205.53;;;;116834;1196;25206;-45
2022/04/20 10:23:42;;;;;;;;;15.33;14.67;;;27.08;97206.41;;;;116839;1197;24796;-43
2022/04/20 10:26:17;;;;;;;;;18.50;15.25;;;27.13;97205.05;;;;116784;1197;25104;-45
2022/04/20 10:29:08;;;;;;;;;18.67;17.00;;;27.17;97204.52;;;;116624;1197;25272;-43
2022/04/20 10:31:59;;;;;;;;;17.67;15.00;;;27.26;97199.73;;;;116537;1196;25569;-44
2022/04/20 10:34:28;;;;;;;;;21.75;16.25;;;27.26;97195.47;;;;116795;1197;25215;-41
2022/04/20 10:37:03;;;;;;;;;18.25;15.50;;;27.30;97193.17;;;;116799;1197;25522;-44
2022/04/20 10:39:40;;;;;;;;;16.33;13.67;;;27.38;97194.09;;;;116886;1196;25406;-45
2022/04/20 10:42:22;;;;;;;;;26.50;16.75;;;27.41;97191.83;;;;116895;1196;25641;-43
2022/04/20 10:44:55;;;;;;;;;16.00;13.33;;;27.48;97196.38;;;;116915;1198;25555;-44
2022/04/20 10:47:36;;;;;;;;;22.67;21.67;;;27.53;97192.73;;;;117057;1196;25270;-48
2022/04/20 10:50:11;;;;;;;;;14.00;13.00;;;27.61;97194.07;;;;116898;1196;25208;-47
2022/04/20 10:52:41;;;;;;;;;16.75;12.50;;;27.55;97192.73;;;;116917;1196;24956;-45
2022/04/20 10:55:09;;;;;;;;;16.50;15.25;;;27.51;97187.15;;;;116950;1197;25691;-45
2022/04/20 10:57:39;;;;;;;;;14.75;12.75;;;27.52;97182.04;;;;117149;1196;25592;-44
2022/04/20 11:00:16;;;;;;;;;16.50;16.50;;;27.65;97186.35;;;;116836;1196;24923;-45
2022/04/20 11:03:10;;;;;;;;;19.00;14.67;;;27.54;97184.96;;;;116844;1196;25077;-45
2022/04/20 11:05:53;;;;;;;;;19.00;15.50;;;27.61;97177.19;;;;117148;1197;25687;-44
2022/04/20 11:08:26;;;;;;;;;18.75;15.25;;;27.68;97170.64;;;;116872;1196;26422;-43
2022/04/20 11:20:02;;;;;;;;;13.67;11.00;;;27.60;97170.15;;;;116872;1197;25867;-45
2022/04/20 11:22:31;;;;;;;;;15.33;13.67;;;27.58;97166.89;;;;116878;1197;25854;-44
2022/04/20 11:25:02;;;;;;;;;12.75;11.25;;;27.56;97169.06;;;;116727;1197;25601;-45
2022/04/20 11:27:35;;;;;;;;;9.67;9.67;;;27.52;97164.04;;;;116915;1197;25118;-45
2022/04/20 11:30:06;;;;;;;;;13.50;11.00;;;27.53;97164.27;;;;116905;1198;26359;-44
2022/04/20 11:32:37;;;;;;;;;15.33;14.00;;;27.52;97162.98;;;;116813;1197;25693;-45
2022/04/20 11:35:06;;;;;;;;;13.75;11.25;;;27.49;97160.64;;;;116976;1196;25546;-45
2022/04/20 11:37:37;;;;;;;;;14.00;10.33;;;27.46;97162.65;;;;116815;1197;25378;-54
2022/04/20 11:40:15;;;;;;;;;9.33;8.00;;;27.51;97156.08;;;;116947;1197;25424;-45
2022/04/20 11:43:03;;;;;;;;;13.00;7.00;;;27.55;97156.50;;;;117008;1197;25781;-48
2022/04/20 11:45:53;;;;;;;;;11.25;8.25;;;27.71;97158.85;;;;116942;1197;26317;-54
2022/04/20 11:48:22;;;;;;;;;12.33;11.33;;;27.67;97154.49;;;;116877;1197;25634;-48
2022/04/20 11:50:58;;;;;;;;;10.50;10.00;;;27.62;97152.56;;;;117063;1196;25542;-47
2022/04/20 11:53:37;;;;;;;;;9.33;8.33;;;27.61;97151.58;;;;116845;1198;26156;-52
2022/04/20 11:56:09;;;;;;;;;16.25;13.00;;;27.57;97150.30;;;;117001;1196;25421;-51
2022/04/20 11:58:38;;;;;;;;;8.50;8.50;;;27.57;97151.89;;;;116774;1197;25410;-48
2022/04/20 12:01:11;;;;;;;;;10.50;8.25;;;27.50;97151.15;;;;116937;1197;25569;-51
2022/04/20 12:03:42;;;;;;;;;10.75;9.75;;;27.49;97154.19;;;;116793;1198;25425;-52
2022/04/20 12:06:12;;;;;;;;;11.00;9.00;;;27.43;97149.15;;;;116776;1197;25894;-56
2022/04/20 12:08:41;;;;;;;;;9.00;9.00;;;27.36;97148.56;;;;116918;1197;24961;-54
2022/04/20 12:11:11;;;;;;;;;8.33;4.00;;;27.37;97147.27;;;;116879;1197;24847;-55
2022/04/20 12:13:45;;;;;;;;;12.00;9.50;;;27.34;97143.88;;;;116844;1197;24944;-54
2022/04/20 12:16:13;;;;;;;;;7.00;5.75;;;27.33;97141.48;;;;116870;1196;24976;-56
2022/04/20 12:18:47;;;;;;;;;9.75;7.75;;;27.34;97139.31;;;;116810;1197;25293;-52
2022/04/20 12:21:35;;;;;;;;;13.75;8.25;;;27.34;97136.73;;;;117311;1197;26012;-57
2022/04/20 12:24:06;;;;;;;;;8.50;8.50;;;27.56;97137.17;;;;117187;1196;26542;-48
2022/04/20 12:26:40;;;;;;;;;9.00;7.67;;;27.73;97137.59;;;;117020;1197;25675;-53
2022/04/20 12:29:15;;;;;;;;;12.00;8.67;;;27.71;97138.91;;;;117007;1197;25391;-49
2022/04/20 12:31:47;;;;;;;;;14.33;8.33;;;27.64;97135.47;;;;117089;1198;25086;-47
2022/04/20 12:34:16;;;;;;;;;13.00;9.33;;;27.75;97136.93;;;;117065;1196;25048;-48
2022/04/20 12:37:11;;;;;;;;;8.00;6.25;;;27.79;97135.20;;;;116807;1197;26052;-50
2022/04/20 12:39:42;;;;;;;;;9.33;6.00;;;27.72;97132.40;;;;116851;1196;25336;-51
2022/04/20 12:42:11;;;;;;;;;12.50;9.00;;;27.64;97130.20;;;;116875;1196;26427;-50
2022/04/20 12:44:51;;;;;;;;;8.00;6.75;;;27.57;97130.12;;;;116888;1197;25051;-49
2022/04/20 12:47:23;;;;;;;;;9.33;7.67;;;27.55;97130.52;;;;116684;1197;25441;-53
2022/04/20 12:50:03;;;;;;;;;10.33;8.00;;;27.45;97134.08;;;;116973;1196;24838;-55
2022/04/20 12:52:32;;;;;;;;;6.33;6.33;;;27.47;97133.70;;;;116761;1196;24887;-49